Meteo Giornale » Osservazioni meteo Stati Uniti (USA) » Wilmington New Hanover
ore: 04:53 - Osservazioni Meteo Wilmington New Hanover
Lat. 34° 16' N Lon. 77° 54' W Alt. 9 metri s.l.m.
23 °C
Sereno
Temp. 24 Ore
23 °C
31 °C
Nord
0 Km/h
Dew point 23 °C
Umidità 100 %
Visibilità 10 Km
Il sole sorge alle ore 06:45
Il sole tramonta alle ore 19:37
| Data e Ora | Cielo e Fenomeni | T °C | DP °C | Um. % | Pres. hPa | Vis. km | Vento km/h | |
|---|---|---|---|---|---|---|---|---|
| Oggi h: 04:53 | Sereno | 23 | 23 | 100 | 1018 | 10 | N 0 | |
| Oggi h: 03:53 | Sereno | 23 | 23 | 100 | 1018 | 13 | N 0 | |
| Oggi h: 02:53 | Sereno | 24 | 23 | 94 | 1018 | 10 | N 0 | |
| Oggi h: 01:53 | Sereno | 24 | 23 | 94 | 1018 | 10 | N 0 | |
| Oggi h: 00:53 | Sereno | 24 | 24 | 100 | 1019 | 10 | N 0 | |
| Ieri h: 23:53 | Sereno | 24 | 24 | 100 | 1019 | 10 | N 0 | |
| Ieri h: 22:53 | Sereno | 26 | 24 | 88 | 1019 | 10 | N 0 | |
| Ieri h: 21:53 | Sereno | 26 | 24 | 88 | 1019 | 10 | N 0 | |
| Ieri h: 20:53 | Sereno | 27 | 24 | 83 | 1018 | 10 | N 0 | |
| Ieri h: 19:53 | Sereno | 27 | 24 | 83 | 1018 | 10 | S/SE 9.3 | |
| Ieri h: 18:53 | Sereno | 28 | 24 | 78 | 1018 | 10 | SE 13 | |
| Ieri h: 17:53 | Sereno | 29 | 23 | 70 | 1018 | 10 | E/SE 11.1 | |
| Ieri h: 16:53 | Sereno | 31 | 24 | 66 | 1018 | 10 | E/SE 13 | |
| Ieri h: 15:53 | Poco Nuvoloso | 31 | 24 | 66 | 1018 | 10 | E 13 | |
| Ieri h: 15:12 | Nuvoloso | 31 | 24 | 66 | 1018 | 10 | E/SE 13 | |
| Ieri h: 14:53 | Molto Nuvoloso | 31 | 24 | 66 | 1019 | 10 | N 5.5 | |
| Ieri h: 13:53 | Nuvoloso | 31 | 24 | 66 | 1019 | 10 | E/SE 14.8 | |
| Ieri h: 12:53 | Sereno | 31 | 23 | 62 | 1019 | 10 | N 5.5 | |
| Ieri h: 11:53 | Sereno | 31 | 23 | 62 | 1020 | 10 | N 5.5 | |
| Ieri h: 10:53 | Sereno | 29 | 24 | 74 | 1020 | 10 | NE 7.4 | |
| Ieri h: 09:53 | Poco Nuvoloso | 26 | 24 | 88 | 1019 | 10 | N 7.4 | |
| Ieri h: 09:20 | Coperto | 25 | 24 | 94 | 1020 | 10 | N 9.3 | |
| Ieri h: 08:53 | Coperto | 24 | 24 | 100 | 1020 | 14 | N 0 | |
| Ieri h: 08:24 | Foschia | 24 | 24 | 100 | 1019 | 5 | N 5.5 | |
| Ieri h: 08:18 | Foschia | 24 | 24 | 100 | 1019 | 2 | N 5.5 | |
| Ieri h: 08:06 | Nebbia | 23 | 23 | 100 | 1019 | 2 | N 5.5 | |
| Ieri h: 07:53 | Nebbia | 23 | 23 | 100 | 1019 | 2 | N 0 | |
| Ieri h: 06:53 | Nebbia | 23 | 23 | 100 | 1019 | 2 | N 7.4 | |
| Ieri h: 06:31 | Foschia | 23 | 23 | 100 | 1019 | 5 | N 5.5 | |
| Ieri h: 06:18 | Foschia | 23 | 23 | 100 | 1019 | 2 | N 5.5 | |
| Ieri h: 05:53 | Foschia | 23 | 23 | 100 | 1019 | 2 | N 5.5 | |
| Ieri h: 05:48 | Foschia | 23 | 23 | 100 | 1019 | 2 | N 7.4 | |



